createdAt,value
2023-02-16T00:01:52.748Z,5.74
2023-02-16T00:04:22.943Z,5.73
2023-02-16T00:06:51.690Z,5.77
2023-02-16T00:09:20.528Z,5.71
2023-02-16T00:12:06.700Z,5.73
2023-02-16T00:14:38.294Z,5.70
2023-02-16T00:17:06.860Z,5.70
2023-02-16T00:19:37.150Z,5.73
2023-02-16T00:22:06.347Z,5.75
2023-02-16T00:24:34.508Z,5.78
2023-02-16T00:27:03.178Z,5.79
2023-02-16T00:29:33.690Z,5.79
2023-02-16T00:32:06.429Z,5.82
2023-02-16T00:34:36.157Z,5.78
2023-02-16T00:37:06.202Z,5.75
2023-02-16T00:39:35.262Z,5.83
2023-02-16T00:42:05.994Z,5.83
2023-02-16T00:44:36.891Z,5.82
2023-02-16T00:47:18.879Z,5.89
2023-02-16T00:49:47.626Z,5.91
2023-02-16T00:52:28.755Z,5.96
2023-02-16T00:54:56.762Z,5.90
2023-02-16T00:57:25.607Z,5.93
2023-02-16T01:00:01.861Z,5.98
2023-02-16T01:02:31.168Z,5.98
2023-02-16T01:04:59.039Z,5.98
2023-02-16T01:07:44.434Z,5.99
2023-02-16T01:10:29.891Z,5.99
2023-02-16T01:12:58.191Z,6.00
2023-02-16T01:15:27.495Z,5.99
2023-02-16T01:17:56.830Z,6.01
2023-02-16T01:20:27.625Z,6.04
2023-02-16T01:22:55.757Z,6.02
2023-02-16T01:25:23.792Z,6.00
2023-02-16T01:27:52.043Z,5.93
2023-02-16T01:30:22.556Z,5.94
2023-02-16T01:32:52.436Z,5.92
2023-02-16T01:35:23.204Z,5.93
2023-02-16T01:37:51.486Z,6.00
2023-02-16T01:40:42.028Z,5.97
2023-02-16T01:43:19.976Z,5.90
2023-02-16T01:45:53.094Z,5.90
2023-02-16T01:48:25.704Z,5.92
2023-02-16T01:51:00.376Z,5.95
2023-02-16T01:53:33.066Z,5.96
2023-02-16T01:56:04.810Z,6.06
2023-02-16T01:58:39.424Z,6.14
2023-02-16T02:01:43.169Z,6.17
2023-02-16T02:04:40.307Z,6.18
2023-02-16T02:07:12.621Z,6.21
2023-02-16T02:09:45.975Z,6.17
2023-02-16T02:12:24.011Z,6.13
2023-02-16T02:14:52.130Z,6.17
2023-02-16T02:17:22.544Z,6.19
2023-02-16T02:20:02.374Z,6.25
2023-02-16T02:23:24.088Z,6.29
2023-02-16T02:29:57.582Z,6.39
2023-02-16T02:32:36.133Z,6.40
2023-02-16T02:35:50.700Z,6.42
2023-02-16T02:38:25.731Z,6.44
2023-02-16T02:41:01.485Z,6.38
2023-02-16T02:43:35.228Z,6.34
2023-02-16T02:46:08.901Z,6.42
2023-02-16T02:48:36.901Z,6.44
2023-02-16T02:51:28.812Z,6.49
2023-02-16T02:54:14.912Z,6.54
2023-02-16T02:57:05.635Z,6.61
2023-02-16T02:59:56.739Z,6.64
2023-02-16T03:02:27.574Z,6.64
2023-02-16T03:04:58.675Z,6.63
2023-02-16T03:07:46.735Z,6.71
2023-02-16T03:10:34.050Z,6.74
2023-02-16T03:13:03.279Z,6.75
2023-02-16T03:15:33.171Z,6.80
2023-02-16T03:18:23.570Z,6.87
2023-02-16T03:21:09.454Z,6.87
2023-02-16T03:23:57.679Z,6.82
2023-02-16T03:26:45.934Z,6.88
2023-02-16T03:29:19.352Z,6.91
2023-02-16T03:31:48.325Z,6.93
2023-02-16T03:34:19.264Z,6.92
2023-02-16T03:36:50.302Z,7.01
2023-02-16T03:39:19.369Z,7.01
2023-02-16T03:41:51.169Z,7.03
2023-02-16T03:44:19.789Z,7.06
2023-02-16T03:46:49.533Z,7.11
2023-02-16T03:49:19.516Z,7.07
2023-02-16T03:51:47.637Z,7.16
2023-02-16T03:54:15.520Z,7.19
2023-02-16T03:56:43.592Z,7.16
2023-02-16T03:59:11.436Z,7.21
2023-02-16T04:01:39.270Z,7.22
2023-02-16T04:04:07.478Z,7.19
2023-02-16T04:06:36.689Z,7.17
2023-02-16T04:09:04.723Z,7.13
2023-02-16T04:11:50.370Z,7.13
2023-02-16T04:14:18.404Z,7.08
2023-02-16T04:16:46.297Z,7.08
2023-02-16T04:19:14.436Z,6.98
2023-02-16T04:21:44.083Z,7.03
2023-02-16T04:24:12.070Z,7.11
2023-02-16T04:26:40.214Z,7.12
2023-02-16T04:29:08.016Z,7.13
2023-02-16T04:31:35.910Z,7.08
2023-02-16T04:34:03.826Z,7.11
2023-02-16T04:36:31.727Z,7.16
2023-02-16T04:39:01.137Z,7.12
2023-02-16T04:41:29.057Z,7.11
2023-02-16T04:43:56.864Z,7.15
2023-02-16T04:46:25.099Z,7.17
2023-02-16T04:48:53.111Z,7.18
2023-02-16T04:51:20.984Z,7.21
2023-02-16T04:53:49.084Z,7.14
2023-02-16T04:56:18.606Z,7.11
2023-02-16T04:58:46.620Z,7.07
2023-02-16T05:01:20.828Z,7.10
2023-02-16T05:03:49.186Z,7.08
2023-02-16T05:06:17.171Z,7.03
2023-02-16T05:08:45.494Z,7.05
2023-02-16T05:11:32.140Z,7.03
2023-02-16T05:14:19.668Z,7.07
2023-02-16T05:16:47.840Z,7.07
2023-02-16T05:19:15.753Z,7.05
2023-02-16T05:21:43.730Z,7.11
2023-02-16T05:24:13.185Z,7.11
2023-02-16T05:26:41.458Z,7.12
2023-02-16T05:29:10.813Z,7.06
2023-02-16T05:31:39.370Z,7.09
2023-02-16T05:34:07.248Z,7.11
2023-02-16T05:36:35.190Z,7.16
2023-02-16T05:42:45.934Z,7.06
2023-02-16T05:45:22.497Z,7.12
2023-02-16T05:55:16.338Z,7.06
2023-02-16T05:58:08.550Z,7.17
2023-02-16T06:01:16.887Z,7.22
2023-02-16T06:04:33.825Z,7.18
2023-02-16T06:07:14.939Z,7.07
2023-02-16T06:10:04.347Z,7.17
2023-02-16T06:13:24.718Z,7.15
2023-02-16T06:16:16.876Z,7.24
2023-02-16T06:19:00.036Z,7.27
2023-02-16T06:21:44.901Z,7.30
2023-02-16T06:30:41.120Z,7.32
2023-02-16T06:34:18.296Z,7.30
2023-02-16T06:37:07.440Z,7.32
2023-02-16T06:40:22.952Z,7.32
2023-02-16T06:42:51.231Z,7.35
2023-02-16T06:45:19.701Z,7.45
2023-02-16T06:47:47.524Z,7.52
2023-02-16T06:50:15.640Z,7.57
2023-02-16T06:52:45.057Z,7.60
2023-02-16T06:55:12.974Z,7.47
2023-02-16T06:57:41.092Z,7.40
2023-02-16T07:00:10.820Z,7.50
2023-02-16T07:02:38.623Z,7.47
2023-02-16T07:05:06.964Z,7.56
2023-02-16T07:07:34.864Z,7.58
2023-02-16T07:10:04.077Z,7.61
2023-02-16T07:12:31.964Z,7.59
2023-02-16T07:14:59.833Z,7.67
2023-02-16T07:17:27.772Z,7.72
2023-02-16T07:19:56.052Z,7.77
2023-02-16T07:22:24.778Z,7.83
2023-02-16T07:24:52.626Z,7.98
2023-02-16T07:27:22.017Z,7.98
2023-02-16T07:29:49.916Z,8.06
2023-02-16T07:32:17.826Z,8.10
2023-02-16T07:34:46.249Z,8.17
2023-02-16T07:37:14.128Z,8.20
2023-02-16T07:39:42.017Z,8.20
2023-02-16T07:42:09.899Z,8.13
2023-02-16T07:44:39.202Z,8.27
2023-02-16T07:47:07.107Z,8.36
2023-02-16T07:49:35.231Z,8.38
2023-02-16T07:52:03.240Z,8.47
2023-02-16T07:54:32.557Z,8.57
2023-02-16T07:57:00.553Z,8.50
2023-02-16T07:59:28.792Z,8.47
2023-02-16T08:01:58.348Z,8.64
2023-02-16T08:04:27.259Z,8.70
2023-02-16T08:06:55.506Z,8.70
2023-02-16T08:09:23.468Z,8.87
2023-02-16T08:11:51.624Z,8.84
2023-02-16T08:14:19.531Z,8.91
2023-02-16T08:16:51.740Z,8.98
2023-02-16T08:19:23.249Z,8.96
2023-02-16T08:21:51.419Z,8.99
2023-02-16T08:24:19.310Z,8.95
2023-02-16T08:26:49.843Z,9.03
2023-02-16T08:29:18.746Z,9.02
2023-02-16T08:31:55.536Z,8.98
2023-02-16T08:34:26.541Z,9.03
2023-02-16T08:36:58.060Z,9.10
2023-02-16T08:39:28.841Z,9.18
2023-02-16T08:41:58.441Z,9.36
2023-02-16T08:44:28.213Z,9.42
2023-02-16T08:47:00.794Z,9.37
2023-02-16T08:49:30.294Z,9.59
2023-02-16T08:52:01.781Z,9.65
2023-02-16T08:54:33.790Z,9.75
2023-02-16T08:57:03.283Z,9.86
2023-02-16T08:59:31.817Z,9.97
2023-02-16T09:02:01.109Z,10.10
2023-02-16T09:04:30.929Z,9.90
2023-02-16T09:06:59.659Z,9.94
2023-02-16T09:13:18.004Z,10.08
2023-02-16T09:15:47.598Z,10.23
2023-02-16T09:18:18.032Z,10.06
2023-02-16T09:20:47.769Z,10.20
2023-02-16T09:23:15.738Z,10.11
2023-02-16T09:25:43.955Z,10.12
2023-02-16T09:28:12.238Z,10.00
2023-02-16T09:30:40.997Z,10.03
2023-02-16T09:33:09.150Z,10.22
2023-02-16T09:35:40.534Z,10.35
2023-02-16T09:38:10.933Z,10.39
2023-02-16T09:40:39.301Z,10.41
2023-02-16T09:43:18.504Z,10.41
2023-02-16T09:45:50.905Z,10.31
2023-02-16T09:48:25.812Z,10.27
2023-02-16T09:50:55.687Z,10.29
2023-02-16T09:53:34.665Z,10.30
2023-02-16T09:56:15.154Z,10.14
2023-02-16T09:58:46.869Z,10.08
2023-02-16T10:01:22.086Z,10.02
2023-02-16T10:04:01.818Z,9.90
2023-02-16T10:06:40.401Z,9.98
2023-02-16T10:09:13.524Z,10.21
2023-02-16T10:11:49.743Z,10.23
2023-02-16T10:14:26.376Z,10.15
2023-02-16T10:17:01.614Z,10.16
2023-02-16T10:19:36.558Z,10.33
2023-02-16T10:22:08.694Z,10.48
2023-02-16T10:24:46.246Z,10.34
2023-02-16T10:27:17.167Z,10.25
2023-02-16T10:29:45.347Z,10.15
2023-02-16T10:32:20.906Z,10.17
2023-02-16T10:34:53.245Z,10.19
2023-02-16T10:37:33.577Z,10.26
2023-02-16T10:40:18.774Z,10.20
2023-02-16T10:42:53.487Z,10.22
2023-02-16T10:45:27.408Z,10.24
2023-02-16T10:47:55.866Z,10.32
2023-02-16T10:50:27.717Z,10.14
2023-02-16T10:52:59.140Z,9.92
2023-02-16T10:55:28.726Z,9.95
2023-02-16T10:57:59.401Z,10.09
2023-02-16T11:00:40.297Z,10.35
2023-02-16T11:03:13.313Z,10.29
2023-02-16T11:05:42.482Z,10.17
2023-02-16T11:08:12.952Z,10.25
2023-02-16T11:10:49.130Z,10.15
2023-02-16T11:13:32.973Z,10.22
2023-02-16T11:16:07.082Z,10.14
2023-02-16T11:18:38.008Z,10.34
2023-02-16T11:21:08.452Z,10.41
2023-02-16T11:23:40.326Z,10.46
2023-02-16T11:26:24.699Z,10.55
2023-02-16T11:28:53.138Z,10.60
2023-02-16T11:31:33.105Z,10.51
2023-02-16T11:34:17.366Z,10.45
2023-02-16T11:36:48.356Z,10.49
2023-02-16T11:39:22.930Z,10.45
2023-02-16T11:41:56.134Z,10.43
2023-02-16T11:44:29.334Z,10.33
2023-02-16T11:46:59.190Z,10.31
2023-02-16T11:49:33.349Z,10.12
2023-02-16T11:52:02.438Z,10.08
2023-02-16T11:54:30.517Z,10.17
2023-02-16T11:57:09.782Z,10.24
2023-02-16T11:59:39.268Z,10.22
2023-02-16T12:02:36.901Z,10.17
2023-02-16T12:05:20.621Z,10.29
2023-02-16T12:08:06.894Z,10.36
2023-02-16T12:10:42.327Z,10.47
2023-02-16T12:13:19.594Z,10.31
2023-02-16T12:15:54.781Z,10.10
2023-02-16T12:18:32.604Z,10.28
2023-02-16T12:21:07.814Z,10.43
2023-02-16T12:23:41.326Z,10.29
2023-02-16T12:26:34.294Z,10.23
2023-02-16T12:29:16.582Z,10.20
2023-02-16T12:31:59.695Z,10.34
2023-02-16T12:34:36.656Z,10.34
2023-02-16T12:37:14.735Z,10.45
2023-02-16T12:39:53.749Z,10.32
2023-02-16T12:42:37.378Z,10.30
2023-02-16T12:45:14.220Z,10.33
2023-02-16T12:47:48.967Z,10.32
2023-02-16T12:50:21.407Z,10.35
2023-02-16T12:52:55.755Z,10.35
2023-02-16T12:55:29.152Z,10.50
2023-02-16T12:58:09.493Z,10.53
2023-02-16T13:00:45.405Z,10.36
2023-02-16T13:03:36.059Z,10.42
2023-02-16T13:06:20.226Z,10.35
2023-02-16T13:08:56.151Z,10.32
2023-02-16T13:11:29.521Z,10.56
2023-02-16T13:14:03.652Z,10.67
2023-02-16T13:16:42.230Z,10.78
2023-02-16T13:19:13.182Z,10.78
2023-02-16T13:22:05.844Z,10.86
2023-02-16T13:24:49.241Z,10.78
2023-02-16T13:27:31.366Z,10.77
2023-02-16T13:30:27.690Z,10.68
2023-02-16T13:33:15.497Z,10.78
2023-02-16T13:35:58.894Z,10.78
2023-02-16T13:39:01.966Z,10.82
2023-02-16T13:42:04.101Z,10.98
2023-02-16T13:44:40.582Z,10.91
2023-02-16T13:47:14.933Z,10.89
2023-02-16T13:49:44.630Z,11.05
2023-02-16T13:52:28.672Z,11.09
2023-02-16T13:54:56.787Z,11.16
2023-02-16T13:58:04.473Z,11.15
2023-02-16T14:00:36.748Z,10.89
2023-02-16T14:03:12.156Z,10.72
2023-02-16T14:05:43.900Z,10.80
2023-02-16T14:08:23.672Z,10.81
2023-02-16T14:11:12.492Z,10.92
2023-02-16T14:13:50.816Z,10.81
2023-02-16T14:16:35.733Z,10.98
2023-02-16T14:19:20.161Z,10.92
2023-02-16T14:21:50.983Z,10.86
2023-02-16T14:24:32.724Z,10.91
2023-02-16T14:27:06.191Z,10.85
2023-02-16T14:29:38.599Z,10.88
2023-02-16T14:32:21.367Z,10.85
2023-02-16T14:34:56.035Z,10.80
2023-02-16T14:37:36.820Z,10.88
2023-02-16T14:40:14.296Z,10.76
2023-02-16T14:42:50.092Z,10.75
2023-02-16T14:46:03.503Z,10.81
2023-02-16T14:48:55.533Z,10.83
2023-02-16T14:51:43.954Z,10.88
2023-02-16T14:54:41.648Z,10.89
2023-02-16T14:57:13.672Z,10.93
2023-02-16T14:59:49.488Z,10.88
2023-02-16T15:02:29.640Z,10.91
2023-02-16T15:04:58.303Z,10.87
2023-02-16T15:07:29.472Z,10.78
2023-02-16T15:09:59.856Z,10.85
2023-02-16T15:12:33.438Z,10.93
2023-02-16T15:15:10.311Z,10.92
2023-02-16T15:17:40.851Z,10.84
2023-02-16T15:20:12.199Z,10.83
2023-02-16T15:22:44.632Z,10.84
2023-02-16T15:25:24.432Z,10.90
2023-02-16T15:27:59.074Z,10.88
2023-02-16T15:30:29.946Z,10.81
2023-02-16T15:33:01.888Z,10.73
2023-02-16T15:35:34.927Z,10.70
2023-02-16T15:38:10.530Z,10.66
2023-02-16T15:40:41.626Z,10.38
2023-02-16T15:43:19.987Z,10.42
2023-02-16T15:45:52.686Z,10.53
2023-02-16T15:48:27.851Z,10.50
2023-02-16T15:50:58.601Z,10.38
2023-02-16T15:53:35.980Z,10.31
2023-02-16T15:56:18.924Z,10.32
2023-02-16T15:58:47.816Z,10.32
2023-02-16T16:01:31.213Z,10.30
2023-02-16T16:04:05.809Z,10.34
2023-02-16T16:06:39.589Z,10.28
2023-02-16T16:09:08.544Z,10.30
2023-02-16T16:11:38.603Z,10.21
2023-02-16T16:19:06.839Z,10.08
2023-02-16T16:22:22.125Z,10.06
2023-02-16T16:29:24.428Z,10.00
2023-02-16T16:35:45.765Z,9.92
2023-02-16T16:46:43.568Z,9.88
2023-02-16T16:56:37.986Z,9.85
2023-02-16T16:59:06.312Z,9.89
2023-02-16T17:01:35.853Z,9.95
2023-02-16T17:04:03.956Z,9.96
2023-02-16T17:06:34.166Z,9.95
2023-02-16T17:09:06.623Z,9.99
2023-02-16T17:11:37.045Z,10.08
2023-02-16T17:14:09.823Z,10.07
2023-02-16T17:16:42.241Z,10.01
2023-02-16T17:19:13.346Z,10.05
2023-02-16T17:21:41.541Z,10.01
2023-02-16T17:24:10.285Z,10.05
2023-02-16T17:26:39.021Z,10.05
2023-02-16T17:29:08.491Z,10.09
2023-02-16T17:31:38.763Z,10.21
2023-02-16T17:34:07.302Z,10.16
2023-02-16T17:36:36.196Z,10.20
2023-02-16T17:39:04.174Z,10.12
2023-02-16T17:41:32.250Z,10.13
2023-02-16T17:44:01.121Z,10.14
2023-02-16T17:46:29.311Z,10.07
2023-02-16T17:48:58.960Z,10.00
2023-02-16T17:51:27.402Z,10.09
2023-02-16T17:53:56.094Z,9.96
2023-02-16T17:56:26.038Z,9.97
2023-02-16T17:58:54.394Z,10.06
2023-02-16T18:01:22.987Z,10.06
2023-02-16T18:03:52.659Z,10.13
2023-02-16T18:06:26.398Z,10.12
2023-02-16T18:08:56.364Z,10.07
2023-02-16T18:11:26.086Z,10.07
2023-02-16T18:13:54.374Z,10.06
2023-02-16T18:16:27.359Z,10.09
2023-02-16T18:18:57.331Z,10.10
2023-02-16T18:21:27.100Z,10.15
2023-02-16T18:23:55.053Z,10.21
2023-02-16T18:26:23.777Z,10.10
2023-02-16T18:28:52.442Z,10.02
2023-02-16T18:31:20.961Z,10.04
2023-02-16T18:33:49.290Z,10.07
2023-02-16T18:36:17.285Z,10.02
2023-02-16T18:38:46.566Z,9.97
2023-02-16T18:41:14.908Z,10.00
2023-02-16T18:43:45.683Z,10.07
2023-02-16T18:46:14.215Z,10.10
2023-02-16T18:48:43.977Z,10.06
2023-02-16T18:51:16.586Z,10.03
2023-02-16T18:53:56.428Z,10.07
2023-02-16T18:56:24.438Z,10.20
2023-02-16T18:58:53.291Z,10.24
2023-02-16T19:01:28.273Z,10.28
2023-02-16T19:03:56.227Z,10.25
2023-02-16T19:06:24.558Z,10.26
2023-02-16T19:08:54.011Z,10.24
2023-02-16T19:11:25.428Z,10.14
2023-02-16T19:13:53.700Z,10.12
2023-02-16T19:16:21.956Z,10.05
2023-02-16T19:18:52.200Z,10.09
2023-02-16T19:21:20.298Z,10.05
2023-02-16T19:23:48.151Z,10.01
2023-02-16T19:26:19.253Z,10.01
2023-02-16T19:28:47.973Z,9.99
2023-02-16T19:31:22.296Z,10.01
2023-02-16T19:33:53.527Z,10.10
2023-02-16T19:36:22.304Z,10.05
2023-02-16T19:38:50.348Z,10.13
2023-02-16T19:41:22.991Z,10.11
2023-02-16T19:43:52.793Z,10.09
2023-02-16T19:46:21.099Z,10.05
2023-02-16T19:48:49.475Z,10.05
2023-02-16T19:51:17.385Z,10.01
2023-02-16T19:53:47.071Z,10.07
2023-02-16T19:56:17.567Z,10.03
2023-02-16T19:58:49.525Z,10.08
2023-02-16T20:01:20.021Z,10.11
2023-02-16T20:03:48.287Z,10.08
2023-02-16T20:06:19.905Z,10.12
2023-02-16T20:08:49.208Z,10.12
2023-02-16T20:11:18.805Z,10.17
2023-02-16T20:13:48.679Z,10.19
2023-02-16T20:16:17.720Z,10.17
2023-02-16T20:18:45.805Z,10.17
2023-02-16T20:21:16.256Z,10.02
2023-02-16T20:23:44.449Z,10.05
2023-02-16T20:26:15.618Z,10.09
2023-02-16T20:28:50.965Z,10.08
2023-02-16T20:31:25.309Z,10.13
2023-02-16T20:33:54.571Z,10.14
2023-02-16T20:36:23.387Z,10.05
2023-02-16T20:38:51.737Z,10.03
2023-02-16T20:41:21.299Z,9.94
2023-02-16T20:43:51.626Z,10.02
2023-02-16T20:46:20.211Z,10.01
2023-02-16T20:48:50.045Z,10.07
2023-02-16T20:51:19.450Z,10.09
2023-02-16T20:53:47.945Z,10.20
2023-02-16T20:56:21.656Z,10.29
2023-02-16T20:58:52.877Z,10.25
2023-02-16T21:01:24.036Z,10.29
2023-02-16T21:03:54.647Z,10.27
2023-02-16T21:06:22.743Z,10.27
2023-02-16T21:08:50.728Z,10.13
2023-02-16T21:11:18.834Z,10.07
2023-02-16T21:13:47.759Z,10.10
2023-02-16T21:16:17.340Z,10.01
2023-02-16T21:18:45.532Z,10.07
2023-02-16T21:21:15.726Z,10.16
2023-02-16T21:23:44.442Z,10.20
2023-02-16T21:26:13.417Z,10.22
2023-02-16T21:28:41.540Z,10.28
2023-02-16T21:31:12.148Z,10.29
2023-02-16T21:33:43.757Z,10.25
2023-02-16T21:36:14.298Z,10.24
2023-02-16T21:38:44.939Z,10.28
2023-02-16T21:41:29.111Z,10.27
2023-02-16T21:44:00.842Z,10.25
2023-02-16T21:46:32.668Z,10.26
2023-02-16T21:49:04.000Z,10.30
2023-02-16T21:51:34.362Z,10.31
2023-02-16T21:54:02.443Z,10.16
2023-02-16T21:56:48.240Z,10.28
2023-02-16T21:59:17.810Z,10.27
2023-02-16T22:01:51.399Z,10.29
2023-02-16T22:04:22.984Z,10.29
2023-02-16T22:06:52.236Z,10.32
2023-02-16T22:09:21.840Z,10.35
2023-02-16T22:11:50.364Z,10.29
2023-02-16T22:14:18.469Z,10.22
2023-02-16T22:16:48.765Z,10.15
2023-02-16T22:19:18.836Z,10.21
2023-02-16T22:21:49.523Z,10.20
2023-02-16T22:24:18.797Z,10.21
2023-02-16T22:26:48.494Z,10.15
2023-02-16T22:29:16.480Z,10.09
2023-02-16T22:31:45.689Z,10.11
2023-02-16T22:34:16.312Z,10.11
2023-02-16T22:36:46.026Z,10.17
2023-02-16T22:39:16.405Z,10.21
2023-02-16T22:41:44.427Z,10.30
2023-02-16T22:44:13.348Z,10.19
2023-02-16T22:46:41.166Z,10.13
2023-02-16T22:49:11.147Z,10.06
2023-02-16T22:51:39.658Z,10.06
2023-02-16T22:54:07.936Z,10.00
2023-02-16T22:56:37.122Z,10.11
2023-02-16T22:59:05.624Z,10.09
2023-02-16T23:01:33.811Z,10.19
2023-02-16T23:04:02.515Z,10.17
2023-02-16T23:06:32.774Z,10.22
2023-02-16T23:09:03.360Z,10.13
2023-02-16T23:11:31.683Z,10.15
2023-02-16T23:14:01.429Z,10.15
2023-02-16T23:16:29.412Z,10.21
2023-02-16T23:18:58.168Z,10.20
2023-02-16T23:21:28.034Z,10.14
2023-02-16T23:23:56.683Z,10.07
2023-02-16T23:26:26.515Z,10.11
2023-02-16T23:28:56.389Z,10.13
2023-02-16T23:31:25.752Z,10.16
2023-02-16T23:33:54.076Z,10.15
2023-02-16T23:36:21.977Z,10.13
2023-02-16T23:38:49.933Z,10.16
2023-02-16T23:41:17.783Z,10.19
2023-02-16T23:43:45.727Z,10.24
2023-02-16T23:46:13.720Z,10.34
2023-02-16T23:48:42.950Z,10.42
2023-02-16T23:51:12.134Z,10.42
2023-02-16T23:53:40.114Z,10.44
2023-02-16T23:56:09.862Z,10.42
2023-02-16T23:58:41.294Z,10.51
